sensor_id;sensor_type;location;lat;lon;timestamp;P1;durP1;ratioP1;P2;durP2;ratioP2
80127;SDS011;69440;52.118;5.408;2023-11-22T00:00:59;12.60;;;6.30;;
80127;SDS011;69440;52.118;5.408;2023-11-22T00:03:25;11.55;;;5.85;;
80127;SDS011;69440;52.118;5.408;2023-11-22T00:05:52;11.02;;;5.43;;
80127;SDS011;69440;52.118;5.408;2023-11-22T00:08:18;10.32;;;5.15;;
80127;SDS011;69440;52.118;5.408;2023-11-22T00:10:45;9.70;;;5.68;;
80127;SDS011;69440;52.118;5.408;2023-11-22T00:13:11;10.20;;;5.95;;
80127;SDS011;69440;52.118;5.408;2023-11-22T00:15:38;9.15;;;5.25;;
80127;SDS011;69440;52.118;5.408;2023-11-22T00:18:04;14.25;;;5.90;;
80127;SDS011;69440;52.118;5.408;2023-11-22T00:20:31;9.90;;;5.30;;
80127;SDS011;69440;52.118;5.408;2023-11-22T00:22:57;10.25;;;5.32;;
80127;SDS011;69440;52.118;5.408;2023-11-22T00:25:24;9.43;;;5.28;;
80127;SDS011;69440;52.118;5.408;2023-11-22T00:27:51;8.15;;;5.00;;
80127;SDS011;69440;52.118;5.408;2023-11-22T00:30:17;10.93;;;5.97;;
80127;SDS011;69440;52.118;5.408;2023-11-22T00:32:44;10.40;;;5.60;;
80127;SDS011;69440;52.118;5.408;2023-11-22T00:35:10;9.30;;;5.38;;
80127;SDS011;69440;52.118;5.408;2023-11-22T00:37:37;15.57;;;6.40;;
80127;SDS011;69440;52.118;5.408;2023-11-22T00:40:03;11.75;;;6.15;;
80127;SDS011;69440;52.118;5.408;2023-11-22T00:42:39;12.70;;;5.68;;
80127;SDS011;69440;52.118;5.408;2023-11-22T00:45:09;10.38;;;5.60;;
80127;SDS011;69440;52.118;5.408;2023-11-22T00:47:36;9.80;;;5.35;;
80127;SDS011;69440;52.118;5.408;2023-11-22T00:50:03;10.55;;;5.93;;
80127;SDS011;69440;52.118;5.408;2023-11-22T00:52:30;12.65;;;5.47;;
80127;SDS011;69440;52.118;5.408;2023-11-22T00:54:57;8.63;;;5.10;;
80127;SDS011;69440;52.118;5.408;2023-11-22T00:57:24;9.43;;;5.55;;
80127;SDS011;69440;52.118;5.408;2023-11-22T00:59:50;12.55;;;5.90;;
80127;SDS011;69440;52.118;5.408;2023-11-22T01:04:43;11.00;;;5.60;;
80127;SDS011;69440;52.118;5.408;2023-11-22T01:07:09;9.10;;;5.50;;
80127;SDS011;69440;52.118;5.408;2023-11-22T01:09:36;8.88;;;5.10;;
80127;SDS011;69440;52.118;5.408;2023-11-22T01:14:29;10.75;;;5.97;;
80127;SDS011;69440;52.118;5.408;2023-11-22T01:16:55;10.75;;;5.07;;
80127;SDS011;69440;52.118;5.408;2023-11-22T01:21:48;9.75;;;5.15;;
80127;SDS011;69440;52.118;5.408;2023-11-22T01:24:15;8.93;;;4.90;;
80127;SDS011;69440;52.118;5.408;2023-11-22T01:26:42;9.82;;;4.88;;
80127;SDS011;69440;52.118;5.408;2023-11-22T01:29:09;9.77;;;5.13;;
80127;SDS011;69440;52.118;5.408;2023-11-22T01:31:38;9.80;;;4.97;;
80127;SDS011;69440;52.118;5.408;2023-11-22T01:34:05;8.98;;;5.05;;
80127;SDS011;69440;52.118;5.408;2023-11-22T01:36:34;10.80;;;5.03;;
80127;SDS011;69440;52.118;5.408;2023-11-22T01:39:00;11.23;;;4.88;;
80127;SDS011;69440;52.118;5.408;2023-11-22T01:41:27;9.20;;;4.68;;
80127;SDS011;69440;52.118;5.408;2023-11-22T01:43:56;9.82;;;5.25;;
80127;SDS011;69440;52.118;5.408;2023-11-22T01:46:23;10.90;;;5.45;;
80127;SDS011;69440;52.118;5.408;2023-11-22T01:48:52;9.30;;;5.03;;
80127;SDS011;69440;52.118;5.408;2023-11-22T01:51:23;8.57;;;4.65;;
80127;SDS011;69440;52.118;5.408;2023-11-22T01:53:51;9.23;;;5.35;;
80127;SDS011;69440;52.118;5.408;2023-11-22T01:56:20;11.35;;;5.18;;
80127;SDS011;69440;52.118;5.408;2023-11-22T01:58:49;9.57;;;5.00;;
80127;SDS011;69440;52.118;5.408;2023-11-22T02:01:16;10.77;;;5.32;;
80127;SDS011;69440;52.118;5.408;2023-11-22T02:06:11;9.38;;;4.90;;
80127;SDS011;69440;52.118;5.408;2023-11-22T02:11:05;8.18;;;4.93;;
80127;SDS011;69440;52.118;5.408;2023-11-22T02:13:31;9.57;;;4.28;;
80127;SDS011;69440;52.118;5.408;2023-11-22T02:15:58;10.00;;;5.10;;
80127;SDS011;69440;52.118;5.408;2023-11-22T02:18:27;8.25;;;4.78;;
80127;SDS011;69440;52.118;5.408;2023-11-22T02:20:54;9.13;;;4.82;;
80127;SDS011;69440;52.118;5.408;2023-11-22T02:23:21;8.27;;;5.15;;
80127;SDS011;69440;52.118;5.408;2023-11-22T02:25:48;9.35;;;4.90;;
80127;SDS011;69440;52.118;5.408;2023-11-22T02:28:15;9.93;;;5.00;;
80127;SDS011;69440;52.118;5.408;2023-11-22T02:30:42;9.43;;;4.88;;
80127;SDS011;69440;52.118;5.408;2023-11-22T02:35:35;10.85;;;5.18;;
80127;SDS011;69440;52.118;5.408;2023-11-22T02:38:02;10.23;;;5.38;;
80127;SDS011;69440;52.118;5.408;2023-11-22T02:40:28;9.23;;;4.93;;
80127;SDS011;69440;52.118;5.408;2023-11-22T02:45:26;11.52;;;4.78;;
80127;SDS011;69440;52.118;5.408;2023-11-22T02:47:54;10.32;;;4.82;;
80127;SDS011;69440;52.118;5.408;2023-11-22T02:50:21;8.13;;;4.47;;
80127;SDS011;69440;52.118;5.408;2023-11-22T02:52:48;9.52;;;5.22;;
80127;SDS011;69440;52.118;5.408;2023-11-22T02:57:41;8.13;;;4.43;;
80127;SDS011;69440;52.118;5.408;2023-11-22T03:00:08;8.57;;;4.88;;
80127;SDS011;69440;52.118;5.408;2023-11-22T03:02:36;9.82;;;5.00;;
80127;SDS011;69440;52.118;5.408;2023-11-22T03:05:03;9.80;;;5.05;;
80127;SDS011;69440;52.118;5.408;2023-11-22T03:07:30;8.43;;;4.80;;
80127;SDS011;69440;52.118;5.408;2023-11-22T03:09:57;9.70;;;4.72;;
80127;SDS011;69440;52.118;5.408;2023-11-22T03:12:26;8.25;;;4.72;;
80127;SDS011;69440;52.118;5.408;2023-11-22T03:14:53;12.00;;;5.00;;
80127;SDS011;69440;52.118;5.408;2023-11-22T03:17:24;9.50;;;4.78;;
80127;SDS011;69440;52.118;5.408;2023-11-22T03:22:18;6.95;;;4.43;;
80127;SDS011;69440;52.118;5.408;2023-11-22T03:27:10;11.70;;;5.40;;
80127;SDS011;69440;52.118;5.408;2023-11-22T03:29:37;9.88;;;4.80;;
80127;SDS011;69440;52.118;5.408;2023-11-22T03:32:04;8.80;;;4.90;;
80127;SDS011;69440;52.118;5.408;2023-11-22T03:34:31;11.02;;;4.70;;
80127;SDS011;69440;52.118;5.408;2023-11-22T03:39:24;7.15;;;4.65;;
80127;SDS011;69440;52.118;5.408;2023-11-22T03:41:51;8.32;;;4.22;;
80127;SDS011;69440;52.118;5.408;2023-11-22T03:44:17;8.02;;;4.25;;
80127;SDS011;69440;52.118;5.408;2023-11-22T03:46:44;9.55;;;4.70;;
80127;SDS011;69440;52.118;5.408;2023-11-22T03:49:10;7.60;;;5.15;;
80127;SDS011;69440;52.118;5.408;2023-11-22T03:51:39;9.25;;;4.50;;
80127;SDS011;69440;52.118;5.408;2023-11-22T03:54:07;9.70;;;4.70;;
80127;SDS011;69440;52.118;5.408;2023-11-22T03:59:00;8.73;;;4.65;;
80127;SDS011;69440;52.118;5.408;2023-11-22T04:03:53;8.52;;;4.35;;
80127;SDS011;69440;52.118;5.408;2023-11-22T04:06:20;8.60;;;4.53;;
80127;SDS011;69440;52.118;5.408;2023-11-22T04:08:47;8.73;;;4.63;;
80127;SDS011;69440;52.118;5.408;2023-11-22T04:13:40;6.40;;;3.70;;
80127;SDS011;69440;52.118;5.408;2023-11-22T04:16:07;10.23;;;4.60;;
80127;SDS011;69440;52.118;5.408;2023-11-22T04:18:35;8.40;;;4.28;;
80127;SDS011;69440;52.118;5.408;2023-11-22T04:21:04;9.27;;;4.22;;
80127;SDS011;69440;52.118;5.408;2023-11-22T04:23:31;8.43;;;4.90;;
80127;SDS011;69440;52.118;5.408;2023-11-22T04:26:01;6.90;;;4.07;;
80127;SDS011;69440;52.118;5.408;2023-11-22T04:28:28;9.70;;;4.75;;
80127;SDS011;69440;52.118;5.408;2023-11-22T04:30:57;10.10;;;5.10;;
80127;SDS011;69440;52.118;5.408;2023-11-22T04:33:25;8.82;;;5.20;;
80127;SDS011;69440;52.118;5.408;2023-11-22T04:35:54;9.13;;;4.90;;
80127;SDS011;69440;52.118;5.408;2023-11-22T04:38:21;9.50;;;4.43;;
80127;SDS011;69440;52.118;5.408;2023-11-22T04:40:48;10.88;;;4.93;;
80127;SDS011;69440;52.118;5.408;2023-11-22T04:43:14;8.60;;;4.65;;
80127;SDS011;69440;52.118;5.408;2023-11-22T04:45:41;8.65;;;5.20;;
80127;SDS011;69440;52.118;5.408;2023-11-22T04:48:07;10.60;;;4.85;;
80127;SDS011;69440;52.118;5.408;2023-11-22T04:50:34;10.98;;;4.90;;
80127;SDS011;69440;52.118;5.408;2023-11-22T04:53:00;8.43;;;4.93;;
80127;SDS011;69440;52.118;5.408;2023-11-22T04:55:30;7.70;;;4.38;;
80127;SDS011;69440;52.118;5.408;2023-11-22T05:00:23;11.20;;;5.25;;
80127;SDS011;69440;52.118;5.408;2023-11-22T05:02:51;9.15;;;4.93;;
80127;SDS011;69440;52.118;5.408;2023-11-22T05:07:44;9.93;;;5.00;;
80127;SDS011;69440;52.118;5.408;2023-11-22T05:10:13;8.05;;;4.60;;
80127;SDS011;69440;52.118;5.408;2023-11-22T05:12:40;8.15;;;4.80;;
80127;SDS011;69440;52.118;5.408;2023-11-22T05:17:34;10.25;;;4.43;;
80127;SDS011;69440;52.118;5.408;2023-11-22T05:20:01;8.70;;;4.18;;
80127;SDS011;69440;52.118;5.408;2023-11-22T05:22:28;9.88;;;4.90;;
80127;SDS011;69440;52.118;5.408;2023-11-22T05:27:22;9.65;;;5.00;;
80127;SDS011;69440;52.118;5.408;2023-11-22T05:32:20;8.82;;;4.63;;
80127;SDS011;69440;52.118;5.408;2023-11-22T05:34:47;9.38;;;5.35;;
80127;SDS011;69440;52.118;5.408;2023-11-22T05:37:14;12.38;;;5.40;;
80127;SDS011;69440;52.118;5.408;2023-11-22T05:42:07;11.07;;;5.47;;
80127;SDS011;69440;52.118;5.408;2023-11-22T05:47:00;8.80;;;4.93;;
80127;SDS011;69440;52.118;5.408;2023-11-22T05:49:26;8.77;;;4.85;;
80127;SDS011;69440;52.118;5.408;2023-11-22T05:54:19;8.77;;;4.80;;
80127;SDS011;69440;52.118;5.408;2023-11-22T05:56:45;10.57;;;4.97;;
80127;SDS011;69440;52.118;5.408;2023-11-22T06:01:38;7.40;;;4.35;;
80127;SDS011;69440;52.118;5.408;2023-11-22T06:04:05;12.77;;;5.40;;
80127;SDS011;69440;52.118;5.408;2023-11-22T06:06:32;9.30;;;4.30;;
80127;SDS011;69440;52.118;5.408;2023-11-22T06:08:58;11.55;;;4.90;;
80127;SDS011;69440;52.118;5.408;2023-11-22T06:11:26;10.93;;;5.00;;
80127;SDS011;69440;52.118;5.408;2023-11-22T06:13:52;8.50;;;4.60;;
80127;SDS011;69440;52.118;5.408;2023-11-22T06:18:45;11.85;;;5.40;;
80127;SDS011;69440;52.118;5.408;2023-11-22T06:21:13;13.10;;;5.30;;
80127;SDS011;69440;52.118;5.408;2023-11-22T06:23:39;11.13;;;5.60;;
80127;SDS011;69440;52.118;5.408;2023-11-22T06:28:33;8.98;;;5.30;;
80127;SDS011;69440;52.118;5.408;2023-11-22T06:31:00;9.57;;;4.68;;
80127;SDS011;69440;52.118;5.408;2023-11-22T06:35:53;9.88;;;4.57;;
80127;SDS011;69440;52.118;5.408;2023-11-22T06:38:20;10.98;;;5.22;;
80127;SDS011;69440;52.118;5.408;2023-11-22T06:43:13;9.60;;;5.00;;
80127;SDS011;69440;52.118;5.408;2023-11-22T06:48:07;12.85;;;5.43;;
80127;SDS011;69440;52.118;5.408;2023-11-22T06:50:35;9.88;;;5.68;;
80127;SDS011;69440;52.118;5.408;2023-11-22T06:55:29;10.27;;;5.28;;
80127;SDS011;69440;52.118;5.408;2023-11-22T06:57:57;10.45;;;5.97;;
80127;SDS011;69440;52.118;5.408;2023-11-22T07:02:49;10.50;;;5.80;;
80127;SDS011;69440;52.118;5.408;2023-11-22T07:07:42;11.45;;;5.53;;
80127;SDS011;69440;52.118;5.408;2023-11-22T07:12:37;11.52;;;5.75;;
80127;SDS011;69440;52.118;5.408;2023-11-22T07:15:06;10.70;;;6.28;;
80127;SDS011;69440;52.118;5.408;2023-11-22T07:17:33;11.55;;;5.72;;
80127;SDS011;69440;52.118;5.408;2023-11-22T07:20:00;11.38;;;6.40;;
80127;SDS011;69440;52.118;5.408;2023-11-22T07:22:27;12.30;;;5.95;;
80127;SDS011;69440;52.118;5.408;2023-11-22T07:24:54;15.07;;;6.45;;
80127;SDS011;69440;52.118;5.408;2023-11-22T07:27:21;12.05;;;6.20;;
80127;SDS011;69440;52.118;5.408;2023-11-22T07:29:48;10.50;;;5.53;;
80127;SDS011;69440;52.118;5.408;2023-11-22T07:32:18;11.38;;;6.30;;
80127;SDS011;69440;52.118;5.408;2023-11-22T07:34:46;10.73;;;5.57;;
80127;SDS011;69440;52.118;5.408;2023-11-22T07:37:13;10.13;;;5.57;;
80127;SDS011;69440;52.118;5.408;2023-11-22T07:39:41;12.82;;;7.03;;
80127;SDS011;69440;52.118;5.408;2023-11-22T07:42:09;14.20;;;6.82;;
80127;SDS011;69440;52.118;5.408;2023-11-22T07:44:35;10.77;;;5.72;;
80127;SDS011;69440;52.118;5.408;2023-11-22T07:47:04;12.15;;;5.35;;
80127;SDS011;69440;52.118;5.408;2023-11-22T07:49:38;13.73;;;7.03;;
80127;SDS011;69440;52.118;5.408;2023-11-22T07:52:05;12.02;;;5.45;;
80127;SDS011;69440;52.118;5.408;2023-11-22T07:54:33;12.18;;;6.28;;
80127;SDS011;69440;52.118;5.408;2023-11-22T07:57:01;12.38;;;6.40;;
80127;SDS011;69440;52.118;5.408;2023-11-22T07:59:28;16.38;;;6.70;;
80127;SDS011;69440;52.118;5.408;2023-11-22T08:04:21;10.07;;;6.00;;
80127;SDS011;69440;52.118;5.408;2023-11-22T08:06:49;12.00;;;6.53;;
80127;SDS011;69440;52.118;5.408;2023-11-22T08:09:16;11.63;;;6.25;;
80127;SDS011;69440;52.118;5.408;2023-11-22T08:11:42;13.23;;;6.53;;
80127;SDS011;69440;52.118;5.408;2023-11-22T08:14:09;15.15;;;7.45;;
80127;SDS011;69440;52.118;5.408;2023-11-22T08:16:36;15.98;;;7.05;;
80127;SDS011;69440;52.118;5.408;2023-11-22T08:19:04;12.80;;;7.03;;
80127;SDS011;69440;52.118;5.408;2023-11-22T08:21:34;15.25;;;7.70;;
80127;SDS011;69440;52.118;5.408;2023-11-22T08:24:01;15.13;;;7.13;;
80127;SDS011;69440;52.118;5.408;2023-11-22T08:26:29;14.43;;;6.65;;
80127;SDS011;69440;52.118;5.408;2023-11-22T08:28:55;15.43;;;7.53;;
80127;SDS011;69440;52.118;5.408;2023-11-22T08:33:48;13.13;;;6.50;;
80127;SDS011;69440;52.118;5.408;2023-11-22T08:36:15;15.10;;;6.80;;
80127;SDS011;69440;52.118;5.408;2023-11-22T08:41:09;13.07;;;6.63;;
80127;SDS011;69440;52.118;5.408;2023-11-22T08:43:40;14.40;;;6.82;;
80127;SDS011;69440;52.118;5.408;2023-11-22T08:46:07;16.42;;;7.05;;
80127;SDS011;69440;52.118;5.408;2023-11-22T08:48:40;15.32;;;7.75;;
80127;SDS011;69440;52.118;5.408;2023-11-22T08:51:08;15.10;;;7.20;;
80127;SDS011;69440;52.118;5.408;2023-11-22T08:53:36;17.42;;;8.20;;
80127;SDS011;69440;52.118;5.408;2023-11-22T08:56:03;15.80;;;7.45;;
80127;SDS011;69440;52.118;5.408;2023-11-22T08:58:32;15.05;;;7.40;;
80127;SDS011;69440;52.118;5.408;2023-11-22T09:01:00;14.32;;;6.95;;
80127;SDS011;69440;52.118;5.408;2023-11-22T09:03:26;14.88;;;8.05;;
80127;SDS011;69440;52.118;5.408;2023-11-22T09:05:54;15.93;;;7.28;;
80127;SDS011;69440;52.118;5.408;2023-11-22T09:08:21;13.43;;;7.22;;
80127;SDS011;69440;52.118;5.408;2023-11-22T09:10:53;13.95;;;7.18;;
80127;SDS011;69440;52.118;5.408;2023-11-22T09:13:20;14.15;;;7.13;;
80127;SDS011;69440;52.118;5.408;2023-11-22T09:15:48;16.10;;;7.15;;
80127;SDS011;69440;52.118;5.408;2023-11-22T09:18:15;13.48;;;7.00;;
80127;SDS011;69440;52.118;5.408;2023-11-22T09:20:41;14.80;;;6.68;;
80127;SDS011;69440;52.118;5.408;2023-11-22T09:23:10;13.57;;;7.28;;
80127;SDS011;69440;52.118;5.408;2023-11-22T09:25:37;15.25;;;8.07;;
80127;SDS011;69440;52.118;5.408;2023-11-22T09:28:05;14.80;;;7.45;;
80127;SDS011;69440;52.118;5.408;2023-11-22T09:30:34;15.30;;;8.27;;
80127;SDS011;69440;52.118;5.408;2023-11-22T09:33:12;14.85;;;7.40;;
80127;SDS011;69440;52.118;5.408;2023-11-22T09:35:42;16.52;;;8.35;;
80127;SDS011;69440;52.118;5.408;2023-11-22T09:38:10;16.00;;;8.27;;
80127;SDS011;69440;52.118;5.408;2023-11-22T09:40:45;17.13;;;8.45;;
80127;SDS011;69440;52.118;5.408;2023-11-22T09:43:14;16.83;;;8.00;;
80127;SDS011;69440;52.118;5.408;2023-11-22T09:45:44;16.33;;;8.55;;
80127;SDS011;69440;52.118;5.408;2023-11-22T09:48:18;17.52;;;7.88;;
80127;SDS011;69440;52.118;5.408;2023-11-22T09:50:54;16.55;;;8.55;;
80127;SDS011;69440;52.118;5.408;2023-11-22T09:53:25;17.40;;;8.60;;
80127;SDS011;69440;52.118;5.408;2023-11-22T09:55:54;17.00;;;9.75;;
80127;SDS011;69440;52.118;5.408;2023-11-22T09:58:21;17.42;;;9.23;;
80127;SDS011;69440;52.118;5.408;2023-11-22T10:00:48;20.25;;;9.27;;
80127;SDS011;69440;52.118;5.408;2023-11-22T10:03:15;17.65;;;8.98;;
80127;SDS011;69440;52.118;5.408;2023-11-22T10:05:44;19.30;;;8.90;;
80127;SDS011;69440;52.118;5.408;2023-11-22T10:08:11;17.38;;;8.70;;
80127;SDS011;69440;52.118;5.408;2023-11-22T10:10:37;16.15;;;8.48;;
80127;SDS011;69440;52.118;5.408;2023-11-22T10:13:06;16.27;;;8.52;;
80127;SDS011;69440;52.118;5.408;2023-11-22T10:15:32;17.35;;;8.35;;
80127;SDS011;69440;52.118;5.408;2023-11-22T10:17:59;20.02;;;8.90;;
80127;SDS011;69440;52.118;5.408;2023-11-22T10:20:35;17.33;;;8.88;;
80127;SDS011;69440;52.118;5.408;2023-11-22T10:23:09;16.98;;;8.25;;
80127;SDS011;69440;52.118;5.408;2023-11-22T10:25:37;16.73;;;8.90;;
80127;SDS011;69440;52.118;5.408;2023-11-22T10:28:10;20.63;;;9.10;;
80127;SDS011;69440;52.118;5.408;2023-11-22T10:30:36;15.43;;;8.80;;
80127;SDS011;69440;52.118;5.408;2023-11-22T10:33:03;18.70;;;9.13;;
80127;SDS011;69440;52.118;5.408;2023-11-22T10:35:30;15.80;;;8.80;;
80127;SDS011;69440;52.118;5.408;2023-11-22T10:37:59;17.20;;;8.48;;
80127;SDS011;69440;52.118;5.408;2023-11-22T10:40:28;18.60;;;8.20;;
80127;SDS011;69440;52.118;5.408;2023-11-22T10:42:55;18.17;;;9.07;;
80127;SDS011;69440;52.118;5.408;2023-11-22T10:45:22;15.85;;;8.57;;
80127;SDS011;69440;52.118;5.408;2023-11-22T10:47:50;17.02;;;8.88;;
80127;SDS011;69440;52.118;5.408;2023-11-22T10:50:18;16.10;;;9.25;;
80127;SDS011;69440;52.118;5.408;2023-11-22T10:52:45;16.20;;;8.75;;
80127;SDS011;69440;52.118;5.408;2023-11-22T10:55:19;15.70;;;8.57;;
80127;SDS011;69440;52.118;5.408;2023-11-22T10:57:49;16.77;;;9.55;;
80127;SDS011;69440;52.118;5.408;2023-11-22T11:00:22;16.23;;;8.63;;
80127;SDS011;69440;52.118;5.408;2023-11-22T11:02:51;15.95;;;8.15;;
80127;SDS011;69440;52.118;5.408;2023-11-22T11:05:27;16.48;;;8.63;;
80127;SDS011;69440;52.118;5.408;2023-11-22T11:10:29;16.75;;;8.57;;
80127;SDS011;69440;52.118;5.408;2023-11-22T11:12:57;17.60;;;8.55;;
80127;SDS011;69440;52.118;5.408;2023-11-22T11:15:24;16.67;;;8.77;;
80127;SDS011;69440;52.118;5.408;2023-11-22T11:17:50;17.30;;;9.60;;
80127;SDS011;69440;52.118;5.408;2023-11-22T11:20:17;15.77;;;8.73;;
80127;SDS011;69440;52.118;5.408;2023-11-22T11:22:49;15.18;;;8.63;;
80127;SDS011;69440;52.118;5.408;2023-11-22T11:25:16;14.05;;;8.63;;
80127;SDS011;69440;52.118;5.408;2023-11-22T11:27:51;16.42;;;8.63;;
80127;SDS011;69440;52.118;5.408;2023-11-22T11:32:58;12.63;;;7.15;;
80127;SDS011;69440;52.118;5.408;2023-11-22T11:35:37;12.90;;;7.85;;
80127;SDS011;69440;52.118;5.408;2023-11-22T11:38:19;12.90;;;7.03;;
80127;SDS011;69440;52.118;5.408;2023-11-22T11:40:47;13.52;;;7.50;;
80127;SDS011;69440;52.118;5.408;2023-11-22T11:43:15;12.27;;;7.18;;
80127;SDS011;69440;52.118;5.408;2023-11-22T11:45:42;13.32;;;7.53;;
80127;SDS011;69440;52.118;5.408;2023-11-22T11:48:16;12.95;;;7.93;;
80127;SDS011;69440;52.118;5.408;2023-11-22T11:50:45;12.50;;;7.38;;
80127;SDS011;69440;52.118;5.408;2023-11-22T11:53:13;14.75;;;7.55;;
80127;SDS011;69440;52.118;5.408;2023-11-22T11:55:39;14.88;;;7.90;;
80127;SDS011;69440;52.118;5.408;2023-11-22T11:58:06;13.05;;;6.85;;
80127;SDS011;69440;52.118;5.408;2023-11-22T12:00:38;13.57;;;7.97;;
80127;SDS011;69440;52.118;5.408;2023-11-22T12:05:37;13.35;;;6.93;;
80127;SDS011;69440;52.118;5.408;2023-11-22T12:08:04;12.98;;;7.93;;
80127;SDS011;69440;52.118;5.408;2023-11-22T12:10:31;13.95;;;7.55;;
80127;SDS011;69440;52.118;5.408;2023-11-22T12:12:58;11.60;;;7.25;;
80127;SDS011;69440;52.118;5.408;2023-11-22T12:15:25;14.23;;;8.02;;
80127;SDS011;69440;52.118;5.408;2023-11-22T12:17:51;11.35;;;7.00;;
80127;SDS011;69440;52.118;5.408;2023-11-22T12:20:20;13.10;;;7.03;;
80127;SDS011;69440;52.118;5.408;2023-11-22T12:22:47;13.32;;;8.13;;
80127;SDS011;69440;52.118;5.408;2023-11-22T12:25:14;13.57;;;7.60;;
80127;SDS011;69440;52.118;5.408;2023-11-22T12:27:42;12.90;;;8.20;;
80127;SDS011;69440;52.118;5.408;2023-11-22T12:30:22;12.18;;;7.55;;
80127;SDS011;69440;52.118;5.408;2023-11-22T12:33:04;11.88;;;8.30;;
80127;SDS011;69440;52.118;5.408;2023-11-22T12:35:34;12.82;;;8.50;;
80127;SDS011;69440;52.118;5.408;2023-11-22T12:38:01;13.75;;;8.40;;
80127;SDS011;69440;52.118;5.408;2023-11-22T12:40:31;14.48;;;8.70;;
80127;SDS011;69440;52.118;5.408;2023-11-22T12:42:59;13.18;;;8.60;;
80127;SDS011;69440;52.118;5.408;2023-11-22T12:45:28;14.40;;;10.05;;
80127;SDS011;69440;52.118;5.408;2023-11-22T12:47:55;13.75;;;8.45;;
80127;SDS011;69440;52.118;5.408;2023-11-22T12:52:58;15.73;;;8.95;;
80127;SDS011;69440;52.118;5.408;2023-11-22T12:55:25;15.55;;;9.25;;
80127;SDS011;69440;52.118;5.408;2023-11-22T12:57:56;15.93;;;9.30;;
80127;SDS011;69440;52.118;5.408;2023-11-22T13:00:25;16.40;;;9.27;;
80127;SDS011;69440;52.118;5.408;2023-11-22T13:02:51;15.70;;;9.57;;
80127;SDS011;69440;52.118;5.408;2023-11-22T13:05:29;17.58;;;9.48;;
80127;SDS011;69440;52.118;5.408;2023-11-22T13:07:55;15.43;;;9.23;;
80127;SDS011;69440;52.118;5.408;2023-11-22T13:10:24;18.83;;;8.95;;
80127;SDS011;69440;52.118;5.408;2023-11-22T13:12:55;13.80;;;7.95;;
80127;SDS011;69440;52.118;5.408;2023-11-22T13:15:22;16.08;;;8.82;;
80127;SDS011;69440;52.118;5.408;2023-11-22T13:17:52;14.75;;;8.35;;
80127;SDS011;69440;52.118;5.408;2023-11-22T13:20:24;14.60;;;7.93;;
80127;SDS011;69440;52.118;5.408;2023-11-22T13:22:55;16.70;;;8.63;;
80127;SDS011;69440;52.118;5.408;2023-11-22T13:25:22;16.35;;;8.95;;
80127;SDS011;69440;52.118;5.408;2023-11-22T13:27:50;16.55;;;8.32;;
80127;SDS011;69440;52.118;5.408;2023-11-22T13:30:19;14.70;;;9.15;;
80127;SDS011;69440;52.118;5.408;2023-11-22T13:32:49;17.67;;;9.25;;
80127;SDS011;69440;52.118;5.408;2023-11-22T13:35:16;15.73;;;7.97;;
80127;SDS011;69440;52.118;5.408;2023-11-22T13:37:44;18.25;;;9.00;;
80127;SDS011;69440;52.118;5.408;2023-11-22T13:40:11;13.48;;;7.60;;
80127;SDS011;69440;52.118;5.408;2023-11-22T13:42:46;15.50;;;9.18;;
80127;SDS011;69440;52.118;5.408;2023-11-22T13:45:14;14.05;;;8.55;;
80127;SDS011;69440;52.118;5.408;2023-11-22T13:47:43;13.82;;;8.02;;
80127;SDS011;69440;52.118;5.408;2023-11-22T13:50:11;17.70;;;9.50;;
80127;SDS011;69440;52.118;5.408;2023-11-22T13:52:40;14.40;;;8.88;;
80127;SDS011;69440;52.118;5.408;2023-11-22T13:55:07;14.95;;;8.88;;
80127;SDS011;69440;52.118;5.408;2023-11-22T13:57:38;15.20;;;8.88;;
80127;SDS011;69440;52.118;5.408;2023-11-22T14:00:06;14.23;;;7.68;;
80127;SDS011;69440;52.118;5.408;2023-11-22T14:02:45;17.45;;;9.60;;
80127;SDS011;69440;52.118;5.408;2023-11-22T14:05:12;17.48;;;9.32;;
80127;SDS011;69440;52.118;5.408;2023-11-22T14:07:39;18.65;;;10.27;;
80127;SDS011;69440;52.118;5.408;2023-11-22T14:10:06;18.00;;;9.82;;
80127;SDS011;69440;52.118;5.408;2023-11-22T14:12:33;19.27;;;10.25;;
80127;SDS011;69440;52.118;5.408;2023-11-22T14:14:59;17.30;;;9.65;;
80127;SDS011;69440;52.118;5.408;2023-11-22T14:17:26;21.20;;;9.73;;
80127;SDS011;69440;52.118;5.408;2023-11-22T14:19:52;21.02;;;11.10;;
80127;SDS011;69440;52.118;5.408;2023-11-22T14:22:21;20.60;;;10.48;;
80127;SDS011;69440;52.118;5.408;2023-11-22T14:24:49;21.63;;;10.90;;
80127;SDS011;69440;52.118;5.408;2023-11-22T14:27:17;18.88;;;11.18;;
80127;SDS011;69440;52.118;5.408;2023-11-22T14:29:44;22.52;;;10.70;;
80127;SDS011;69440;52.118;5.408;2023-11-22T14:32:14;19.55;;;10.55;;
80127;SDS011;69440;52.118;5.408;2023-11-22T14:34:41;19.23;;;10.25;;
80127;SDS011;69440;52.118;5.408;2023-11-22T14:37:10;22.73;;;11.45;;
80127;SDS011;69440;52.118;5.408;2023-11-22T14:39:40;22.02;;;11.00;;
80127;SDS011;69440;52.118;5.408;2023-11-22T14:42:07;22.17;;;11.35;;
80127;SDS011;69440;52.118;5.408;2023-11-22T14:44:34;23.95;;;10.40;;
80127;SDS011;69440;52.118;5.408;2023-11-22T14:47:01;20.58;;;11.70;;
80127;SDS011;69440;52.118;5.408;2023-11-22T14:49:45;21.67;;;10.55;;
80127;SDS011;69440;52.118;5.408;2023-11-22T14:52:12;22.25;;;11.07;;
80127;SDS011;69440;52.118;5.408;2023-11-22T14:54:39;20.80;;;10.48;;
80127;SDS011;69440;52.118;5.408;2023-11-22T14:57:06;18.90;;;10.48;;
80127;SDS011;69440;52.118;5.408;2023-11-22T14:59:35;20.55;;;10.77;;
80127;SDS011;69440;52.118;5.408;2023-11-22T15:02:03;20.08;;;10.75;;
80127;SDS011;69440;52.118;5.408;2023-11-22T15:04:33;20.98;;;10.57;;
80127;SDS011;69440;52.118;5.408;2023-11-22T15:07:05;19.08;;;10.00;;
80127;SDS011;69440;52.118;5.408;2023-11-22T15:09:32;18.70;;;10.55;;
80127;SDS011;69440;52.118;5.408;2023-11-22T15:12:00;19.48;;;9.80;;
80127;SDS011;69440;52.118;5.408;2023-11-22T15:14:30;18.40;;;10.60;;
80127;SDS011;69440;52.118;5.408;2023-11-22T15:17:01;18.15;;;10.02;;
80127;SDS011;69440;52.118;5.408;2023-11-22T15:19:30;20.10;;;10.50;;
80127;SDS011;69440;52.118;5.408;2023-11-22T15:21:57;20.85;;;10.13;;
80127;SDS011;69440;52.118;5.408;2023-11-22T15:24:24;18.33;;;9.55;;
80127;SDS011;69440;52.118;5.408;2023-11-22T15:26:52;19.70;;;9.95;;
80127;SDS011;69440;52.118;5.408;2023-11-22T15:29:19;18.67;;;10.05;;
80127;SDS011;69440;52.118;5.408;2023-11-22T15:31:46;18.75;;;10.27;;
80127;SDS011;69440;52.118;5.408;2023-11-22T15:34:13;17.60;;;10.35;;
80127;SDS011;69440;52.118;5.408;2023-11-22T15:36:39;18.17;;;9.50;;
80127;SDS011;69440;52.118;5.408;2023-11-22T15:39:07;16.92;;;9.05;;
80127;SDS011;69440;52.118;5.408;2023-11-22T15:41:41;17.40;;;9.30;;
80127;SDS011;69440;52.118;5.408;2023-11-22T15:44:09;21.17;;;10.02;;
80127;SDS011;69440;52.118;5.408;2023-11-22T15:46:36;16.42;;;9.25;;
80127;SDS011;69440;52.118;5.408;2023-11-22T15:49:02;18.13;;;9.10;;
80127;SDS011;69440;52.118;5.408;2023-11-22T15:51:29;18.33;;;9.65;;
80127;SDS011;69440;52.118;5.408;2023-11-22T15:53:57;18.05;;;10.13;;
80127;SDS011;69440;52.118;5.408;2023-11-22T15:56:23;17.30;;;9.65;;
80127;SDS011;69440;52.118;5.408;2023-11-22T15:58:52;19.20;;;9.70;;
80127;SDS011;69440;52.118;5.408;2023-11-22T16:01:25;22.35;;;11.27;;
80127;SDS011;69440;52.118;5.408;2023-11-22T16:03:55;18.70;;;9.63;;
80127;SDS011;69440;52.118;5.408;2023-11-22T16:06:22;18.35;;;10.13;;
80127;SDS011;69440;52.118;5.408;2023-11-22T16:08:54;19.08;;;10.02;;
80127;SDS011;69440;52.118;5.408;2023-11-22T16:11:22;20.73;;;10.43;;
80127;SDS011;69440;52.118;5.408;2023-11-22T16:13:48;21.08;;;10.13;;
80127;SDS011;69440;52.118;5.408;2023-11-22T16:16:16;20.85;;;11.20;;